Flight Track Log - Related Links

Times and Time Zones

All times are in EDT time to prevent confusion due to time zone crossing. See the N600TR flight status page for this flight to view local times or setup timezone preferences in your user account.

Time Position Orientation Groundspeed Altitude Reporting Facility
EDT Latitude Longitude Course Direction KTS MPH feet Rate Location/Type
Tue 06:31:01 PM 28.1000 -80.6167 77° East 187 215 1,000  Level Orlando TRACON
Tue 06:32:13 PM 28.1167 -80.5333 77° East 237 273 2,900 1,810 Climbing Orlando TRACON
Tue 06:33:07 PM 28.1667 -80.5167 16° North 264 304 4,800 2,000 Climbing Orlando TRACON
Tue 06:34:07 PM 28.2333 -80.5667 327° Northwest 285 328 6,700 1,781 Climbing Orlando TRACON
Tue 06:35:42 PM 28.3203 -80.6572 317° Northwest 294 338 9,400 1,703 Climbing Jacksonville Center
Tue 06:36:42 PM 28.3903 -80.7172 323° Northwest 305 351 11,100 1,250 Climbing Jacksonville Center
Tue 06:37:42 PM 28.4644 -80.7817 323° Northwest 316 364 11,900 1,000 Climbing Jacksonville Center
Tue 06:38:42 PM 28.5469 -80.8578 321° Northwest 349 402 13,100 1,500 Climbing Jacksonville Center
Tue 06:39:42 PM 28.6336 -80.9342 322° Northwest 379 436 14,900 1,350 Climbing Jacksonville Center
Tue 06:40:42 PM 28.7225 -81.0128 322° Northwest 397 457 15,800 550 Climbing Jacksonville Center
Tue 06:41:42 PM 28.8178 -81.1011 321° Northwest 414 476 16,000 1,000 Climbing Jacksonville Center
Tue 06:42:42 PM 28.9086 -81.1847 321° Northwest 428 493 17,800 1,850 Climbing Jacksonville Center
Tue 06:43:42 PM 28.9975 -81.2689 320° Northwest 428 493 19,700 1,500 Climbing Jacksonville Center
Tue 06:44:42 PM 29.0903 -81.3528 322° Northwest 423 487 20,800 1,150 Climbing Jacksonville Center
Tue 06:45:42 PM 29.1831 -81.4394 321° Northwest 428 493 22,000 1,250 Climbing Jacksonville Center
Tue 06:46:42 PM 29.2906 -81.5306 324° Northwest 428 493 23,300 1,150 Climbing Jacksonville Center
Tue 06:47:42 PM 29.4094 -81.5267 North 403 464 24,300 850 Climbing Jacksonville Center
Tue 06:48:42 PM 29.5283 -81.5011 11° North 406 467 25,000 700 Climbing Jacksonville Center
Tue 06:49:42 PM 29.6536 -81.5231 351° North 430 495 25,700 700 Climbing Jacksonville Center
Tue 06:50:42 PM 29.7792 -81.5525 348° North 442 509 26,400 750 Climbing Jacksonville Center
Tue 06:51:42 PM 29.9086 -81.5531 360° North 453 521 27,200 900 Climbing Jacksonville Center
Tue 06:52:42 PM 30.0339 -81.5419 North 453 521 28,200 800 Climbing Jacksonville Center
Tue 06:53:42 PM 30.1631 -81.5281 North 453 521 28,800 400 Climbing Jacksonville Center
Tue 06:54:42 PM 30.2925 -81.5117 North 460 529 29,000 100 Climbing Jacksonville Center
Tue 06:55:42 PM 30.4158 -81.5414 348° North 454 522 29,000  Level Jacksonville Center
Tue 06:56:42 PM 30.5047 -81.6414 316° Northwest 459 528 29,000  Level Jacksonville Center
Tue 06:57:42 PM 30.5997 -81.7486 316° Northwest 466 536 29,000  Level Jacksonville Center
Tue 06:58:42 PM 30.6967 -81.8561 316° Northwest 471 542 29,000 -50 Level Jacksonville Center
Tue 06:59:42 PM 30.7933 -81.9614 317° Northwest 471 542 28,900 -50 Descending Jacksonville Center
Tue 07:00:42 PM 30.8944 -82.0694 317° Northwest 476 548 28,900  Level Jacksonville Center
Tue 07:01:42 PM 30.9889 -82.1728 317° Northwest 476 548 28,900  Level Jacksonville Center
Tue 07:02:42 PM 31.0878 -82.2764 318° Northwest 476 548 28,900  Level Jacksonville Center
Tue 07:03:42 PM 31.1822 -82.3850 315° West 476 548 28,900  Level Jacksonville Center
Tue 07:04:42 PM 31.2786 -82.4867 318° Northwest 476 548 28,900 50 Level Jacksonville Center
Tue 07:05:42 PM 31.3747 -82.5908 317° Northwest 476 548 29,000 50 Climbing Jacksonville Center
Tue 07:06:42 PM 31.4711 -82.6978 317° Northwest 471 542 29,000  Level Jacksonville Center
Tue 07:09:12 PM 31.7128 -82.9697 316° Northwest 463 533 29,000  Level Atlanta Center
Tue 07:10:12 PM 31.8075 -83.0711 318° Northwest 463 533 29,000  Level Atlanta Center
Tue 07:11:12 PM 31.9042 -83.1728 318° Northwest 463 533 29,000 -500 Level Atlanta Center
Tue 07:12:12 PM 32.0156 -83.2600 326° Northwest 463 533 28,000 -1,050 Descending Atlanta Center
Tue 07:13:12 PM 32.1328 -83.3350 332° Northwest 479 551 26,900 -1,050 Descending Atlanta Center
Tue 07:14:12 PM 32.2644 -83.3831 343° North 479 551 25,900 -900 Descending Atlanta Center
Tue 07:15:12 PM 32.3881 -83.4289 343° North 473 544 25,100 -893 Descending Atlanta Center
Tue 07:16:13 PM 32.5114 -83.4772 342° North 467 537 24,100 -950 Descending Atlanta Center
Tue 07:17:12 PM 32.6306 -83.5258 341° North 462 532 23,200 -908 Descending Atlanta Center
Tue 07:18:12 PM 32.7539 -83.5769 341° North 462 532 22,300 -1,050 Descending Atlanta Center
Tue 07:19:12 PM 32.8708 -83.6208 343° North 462 532 21,100 -2,150 Descending Atlanta Center
Tue 07:20:12 PM 32.9839 -83.6772 337° Northwest 448 516 18,000 -2,900 Descending Atlanta Center
Tue 07:21:12 PM 33.0906 -83.7289 338° Northwest 423 487 15,300 -2,000 Descending Atlanta Center
Tue 07:22:12 PM 33.1825 -83.7931 330° Northwest 383 441 14,000 -750 Descending Atlanta Center
Tue 07:23:12 PM 33.2494 -83.8872 310° West 369 425 13,800 -650 Descending Atlanta Center
Tue 07:24:12 PM 33.3142 -83.9767 311° West 386 444 12,700 -850 Descending Atlanta Center
Tue 07:25:12 PM 33.3872 -84.0711 313° West 397 457 12,100 -424 Descending Atlanta Center
Tue 07:25:51 PM 33.4333 -84.1333 312° West 370 426 12,000  Descending Atlanta TRACON
Tue 07:26:51 PM 33.5000 -84.2167 314° West 277 319 12,100 -250 Climbing Atlanta TRACON
Tue 07:27:51 PM 33.5333 -84.2833 301° West 253 291 11,500 -1,362 Descending Atlanta TRACON
Tue 07:29:12 PM 33.5475 -84.4053 278° West 250 288 8,900 -2,034 Descending Atlanta Center
Tue 07:30:45 PM 33.5500 -84.5333 271° West 238 274 5,600 -1,961 Descending Atlanta TRACON
Tue 07:31:45 PM 33.5500 -84.6000 270° West 230 265 3,900 -1,250 Descending Atlanta TRACON
Tue 07:32:45 PM 33.6000 -84.6167 344° North 199 229 3,100 -619 Descending Atlanta TRACON
Tue 07:33:51 PM 33.6167 -84.5667 68° East 157 181 2,600 -524 Descending Atlanta TRACON
Tue 07:34:51 PM 33.6167 -84.5167 90° East 147 169 2,000 -650 Descending Atlanta TRACON
Tue 07:35:51 PM 33.6167 -84.4667 90° East 145 167 1,300 -700 Descending Atlanta TRACON

Login

Don't have an account? Register now (free) for customized features, flight alerts, and more!